createdAt,value
2023-04-12T00:00:29.120Z,11.65
2023-04-12T00:01:30.651Z,8.68
2023-04-12T00:02:35.622Z,11.80
2023-04-12T00:03:37.437Z,13.82
2023-04-12T00:04:42.106Z,9.55
2023-04-12T00:05:46.907Z,8.55
2023-04-12T00:06:48.608Z,9.73
2023-04-12T00:07:53.091Z,9.25
2023-04-12T00:08:54.895Z,9.98
2023-04-12T00:09:56.482Z,11.05
2023-04-12T00:10:57.911Z,6.80
2023-04-12T00:11:59.862Z,13.43
2023-04-12T00:13:01.294Z,10.38
2023-04-12T00:14:02.700Z,14.25
2023-04-12T00:15:06.159Z,11.15
2023-04-12T00:16:09.576Z,9.57
2023-04-12T00:17:11.864Z,11.85
2023-04-12T00:18:13.454Z,9.15
2023-04-12T00:19:16.941Z,9.20
2023-04-12T00:20:18.431Z,12.52
2023-04-12T00:21:19.945Z,12.32
2023-04-12T00:22:21.381Z,10.43
2023-04-12T00:23:22.858Z,12.80
2023-04-12T00:24:26.131Z,11.00
2023-04-12T00:25:27.616Z,11.55
2023-04-12T00:26:29.045Z,12.02
2023-04-12T00:27:30.493Z,13.80
2023-04-12T00:28:32.003Z,11.43
2023-04-12T00:29:33.954Z,13.60
2023-04-12T00:30:35.838Z,10.73
2023-04-12T00:31:37.325Z,12.02
2023-04-12T00:32:38.910Z,9.68
2023-04-12T00:33:40.496Z,11.13
2023-04-12T00:34:41.904Z,12.25
2023-04-12T00:35:43.331Z,14.75
2023-04-12T00:36:44.867Z,14.07
2023-04-12T00:37:46.346Z,8.95
2023-04-12T00:38:48.022Z,7.93
2023-04-12T00:39:49.791Z,12.85
2023-04-12T00:40:51.284Z,12.82
2023-04-12T00:41:52.797Z,11.70
2023-04-12T00:42:54.236Z,12.13
2023-04-12T00:43:55.844Z,12.00
2023-04-12T00:44:57.603Z,12.82
2023-04-12T00:45:59.559Z,10.55
2023-04-12T00:47:03.833Z,12.65
2023-04-12T00:48:06.189Z,13.95
2023-04-12T00:49:07.621Z,12.38
2023-04-12T00:50:10.733Z,14.55
2023-04-12T00:51:12.129Z,13.40
2023-04-12T00:52:15.601Z,13.05
2023-04-12T00:53:18.372Z,15.23
2023-04-12T00:54:20.280Z,16.45
2023-04-12T00:55:21.877Z,13.32
2023-04-12T00:56:27.402Z,12.27
2023-04-12T00:57:34.293Z,13.73
2023-04-12T00:58:36.093Z,14.45
2023-04-12T00:59:37.489Z,11.93
2023-04-12T01:00:39.099Z,13.23
2023-04-12T01:01:41.120Z,14.18
2023-04-12T01:02:48.304Z,15.95
2023-04-12T01:03:52.135Z,13.60
2023-04-12T01:04:53.597Z,13.30
2023-04-12T01:06:13.788Z,19.20
2023-04-12T01:08:41.351Z,18.40
2023-04-12T01:10:14.731Z,12.07
2023-04-12T01:11:29.341Z,14.88
2023-04-12T01:12:46.775Z,12.07
2023-04-12T01:14:06.649Z,10.55
2023-04-12T01:15:12.557Z,12.35
2023-04-12T01:16:17.161Z,13.65
2023-04-12T01:17:21.906Z,14.50
2023-04-12T01:18:29.069Z,12.77
2023-04-12T01:19:36.088Z,10.18
2023-04-12T01:20:44.617Z,12.70
2023-04-12T01:22:10.990Z,15.52
2023-04-12T01:23:15.326Z,13.70
2023-04-12T01:24:36.070Z,13.55
2023-04-12T01:25:46.420Z,12.93
2023-04-12T01:26:49.575Z,12.10
2023-04-12T01:27:56.523Z,18.88
2023-04-12T01:28:59.183Z,14.70
2023-04-12T01:30:02.987Z,15.38
2023-04-12T01:31:07.072Z,10.65
2023-04-12T01:32:11.358Z,14.27
2023-04-12T01:33:13.915Z,17.10
2023-04-12T01:34:16.651Z,20.77
2023-04-12T01:35:21.098Z,15.55
2023-04-12T01:36:26.276Z,15.65
2023-04-12T01:37:27.739Z,16.77
2023-04-12T01:38:30.269Z,18.92
2023-04-12T01:39:33.559Z,21.30
2023-04-12T01:40:35.877Z,16.10
2023-04-12T01:41:43.240Z,15.80
2023-04-12T01:42:45.023Z,20.33
2023-04-12T01:43:47.417Z,16.50
2023-04-12T01:44:50.178Z,14.23
2023-04-12T01:45:51.667Z,13.68
2023-04-12T01:46:53.727Z,18.70
2023-04-12T01:47:55.269Z,19.45
2023-04-12T01:48:58.417Z,15.43
2023-04-12T01:50:05.847Z,18.17
2023-04-12T01:51:16.103Z,20.48
2023-04-12T01:52:23.034Z,17.38
2023-04-12T01:53:50.771Z,16.15
2023-04-12T01:54:57.521Z,18.42
2023-04-12T01:56:03.472Z,16.38
2023-04-12T01:57:08.371Z,14.27
2023-04-12T01:58:11.934Z,15.00
2023-04-12T01:59:17.760Z,18.70
2023-04-12T02:00:20.742Z,17.45
2023-04-12T02:01:23.407Z,19.40
2023-04-12T02:02:25.549Z,16.67
2023-04-12T02:04:33.396Z,16.60
2023-04-12T02:05:35.611Z,14.73
2023-04-12T02:06:39.286Z,15.88
2023-04-12T02:07:42.105Z,18.73
2023-04-12T02:08:43.804Z,13.48
2023-04-12T02:09:45.286Z,13.07
2023-04-12T02:10:47.259Z,19.85
2023-04-12T02:11:49.805Z,17.77
2023-04-12T02:12:51.574Z,20.75
2023-04-12T02:13:53.118Z,14.45
2023-04-12T02:14:54.538Z,15.18
2023-04-12T02:15:57.047Z,22.63
2023-04-12T02:16:59.690Z,17.10
2023-04-12T02:18:01.509Z,18.98
2023-04-12T02:19:03.944Z,20.83
2023-04-12T02:20:09.592Z,18.17
2023-04-12T02:21:11.077Z,17.98
2023-04-12T02:22:12.501Z,19.15
2023-04-12T02:23:13.917Z,18.48
2023-04-12T02:24:15.501Z,19.67
2023-04-12T02:25:19.791Z,20.90
2023-04-12T02:26:23.253Z,23.40
2023-04-12T02:27:24.721Z,19.63
2023-04-12T02:28:26.202Z,15.77
2023-04-12T02:29:27.680Z,15.73
2023-04-12T02:30:29.229Z,15.13
2023-04-12T02:31:30.675Z,16.80
2023-04-12T02:32:32.873Z,16.08
2023-04-12T02:33:34.754Z,17.73
2023-04-12T02:34:38.274Z,18.58
2023-04-12T02:35:39.744Z,16.50
2023-04-12T02:36:41.191Z,13.70
2023-04-12T02:37:43.861Z,14.15
2023-04-12T02:38:45.779Z,18.75
2023-04-12T02:39:47.993Z,16.50
2023-04-12T02:40:49.400Z,18.02
2023-04-12T02:41:50.910Z,21.30
2023-04-12T02:42:52.335Z,16.38
2023-04-12T02:43:53.813Z,15.82
2023-04-12T02:44:55.270Z,14.27
2023-04-12T02:45:56.697Z,13.80
2023-04-12T02:46:58.147Z,16.10
2023-04-12T02:47:59.627Z,15.48
2023-04-12T02:49:01.152Z,18.90
2023-04-12T02:50:02.632Z,19.25
2023-04-12T02:51:04.210Z,16.23
2023-04-12T02:52:05.827Z,18.00
2023-04-12T02:53:07.372Z,19.67
2023-04-12T02:54:08.792Z,21.63
2023-04-12T02:55:10.714Z,23.40
2023-04-12T02:56:12.935Z,19.15
2023-04-12T02:58:17.565Z,18.65
2023-04-12T02:59:18.990Z,15.93
2023-04-12T03:00:21.690Z,16.85
2023-04-12T03:01:23.130Z,15.02
2023-04-12T03:02:24.772Z,19.80
2023-04-12T03:03:28.503Z,24.75
2023-04-12T03:04:30.655Z,21.35
2023-04-12T03:06:34.011Z,22.33
2023-04-12T03:07:36.125Z,19.30
2023-04-12T03:09:42.537Z,26.55
2023-04-12T03:10:44.005Z,15.80
2023-04-12T03:11:46.538Z,23.60
2023-04-12T03:12:47.978Z,20.25
2023-04-12T03:13:49.369Z,20.10
2023-04-12T03:14:51.061Z,15.52
2023-04-12T03:15:57.224Z,23.90
2023-04-12T03:16:58.888Z,24.75
2023-04-12T03:18:00.476Z,15.68
2023-04-12T03:19:01.976Z,21.00
2023-04-12T03:20:09.782Z,18.75
2023-04-12T03:21:12.027Z,19.65
2023-04-12T03:23:14.836Z,18.40
2023-04-12T03:24:16.922Z,18.60
2023-04-12T03:25:18.647Z,20.17
2023-04-12T03:26:20.666Z,15.38
2023-04-12T03:27:22.095Z,23.83
2023-04-12T03:28:23.514Z,14.52
2023-04-12T03:29:24.949Z,18.17
2023-04-12T03:30:26.403Z,24.38
2023-04-12T03:31:28.109Z,22.77
2023-04-12T03:32:29.596Z,21.83
2023-04-12T03:33:31.110Z,19.90
2023-04-12T03:34:32.679Z,13.75
2023-04-12T03:35:34.159Z,18.27
2023-04-12T03:36:35.659Z,20.48
2023-04-12T03:37:37.363Z,22.08
2023-04-12T03:38:38.810Z,18.88
2023-04-12T03:39:40.213Z,21.88
2023-04-12T03:40:41.785Z,21.77
2023-04-12T03:41:43.263Z,23.10
2023-04-12T03:42:44.656Z,20.85
2023-04-12T03:43:46.060Z,19.08
2023-04-12T03:44:48.593Z,19.38
2023-04-12T03:45:50.746Z,21.75
2023-04-12T03:47:54.029Z,15.50
2023-04-12T03:48:55.775Z,21.80
2023-04-12T03:51:12.300Z,20.00
2023-04-12T03:52:13.808Z,24.95
2023-04-12T03:53:15.252Z,23.63
2023-04-12T03:54:16.812Z,25.55
2023-04-12T03:55:18.497Z,23.15
2023-04-12T03:56:20.841Z,25.23
2023-04-12T03:57:22.269Z,24.73
2023-04-12T03:58:23.686Z,21.20
2023-04-12T03:59:25.150Z,28.40
2023-04-12T04:00:26.695Z,25.20
2023-04-12T04:01:31.439Z,21.02
2023-04-12T04:02:33.464Z,22.23
2023-04-12T04:04:38.059Z,18.45
2023-04-12T04:05:39.629Z,23.42
2023-04-12T04:06:41.243Z,28.63
2023-04-12T04:07:42.740Z,27.13
2023-04-12T04:08:44.986Z,30.10
2023-04-12T04:09:50.030Z,32.15
2023-04-12T04:10:51.579Z,30.98
2023-04-12T04:11:52.982Z,32.47
2023-04-12T04:12:54.799Z,36.20
2023-04-12T04:13:56.548Z,33.03
2023-04-12T04:14:58.248Z,34.50
2023-04-12T04:16:05.736Z,35.35
2023-04-12T04:17:07.275Z,32.13
2023-04-12T04:18:08.781Z,33.75
2023-04-12T04:19:10.823Z,34.97
2023-04-12T04:20:13.574Z,34.40
2023-04-12T04:21:15.100Z,33.38
2023-04-12T04:22:17.770Z,35.38
2023-04-12T04:23:19.195Z,33.03
2023-04-12T04:24:22.245Z,38.17
2023-04-12T04:25:29.972Z,32.67
2023-04-12T04:26:34.146Z,29.67
2023-04-12T04:27:38.435Z,34.17
2023-04-12T04:28:50.177Z,28.52
2023-04-12T04:29:52.374Z,29.25
2023-04-12T04:31:57.888Z,26.20
2023-04-12T04:34:03.319Z,24.08
2023-04-12T04:35:05.663Z,24.55
2023-04-12T04:36:07.925Z,24.90
2023-04-12T04:38:11.102Z,25.65
2023-04-12T04:39:12.511Z,28.48
2023-04-12T04:40:14.965Z,30.83
2023-04-12T04:41:17.449Z,37.30
2023-04-12T04:42:18.935Z,36.40
2023-04-12T04:43:20.549Z,36.80
2023-04-12T04:44:22.214Z,38.45
2023-04-12T04:45:27.841Z,34.63
2023-04-12T04:46:30.949Z,35.40
2023-04-12T04:47:32.425Z,35.10
2023-04-12T04:48:34.002Z,36.42
2023-04-12T04:49:38.514Z,38.42
2023-04-12T04:50:39.955Z,41.58
2023-04-12T04:51:41.373Z,39.97
2023-04-12T04:52:42.766Z,34.92
2023-04-12T04:53:44.524Z,31.63
2023-04-12T04:54:46.904Z,34.30
2023-04-12T04:55:48.531Z,33.70
2023-04-12T04:56:50.139Z,31.92
2023-04-12T04:57:51.886Z,23.63
2023-04-12T04:58:55.443Z,30.77
2023-04-12T04:59:58.402Z,34.50
2023-04-12T05:00:59.899Z,33.13
2023-04-12T05:02:01.419Z,32.33
2023-04-12T05:03:03.317Z,32.95
2023-04-12T05:04:05.049Z,32.80
2023-04-12T05:05:07.596Z,46.50
2023-04-12T05:06:09.075Z,38.63
2023-04-12T05:07:10.842Z,36.20
2023-04-12T05:08:12.255Z,39.88
2023-04-12T05:09:13.677Z,38.08
2023-04-12T05:10:15.263Z,44.00
2023-04-12T05:11:16.739Z,44.35
2023-04-12T05:12:18.144Z,43.15
2023-04-12T05:13:19.836Z,35.00
2023-04-12T05:14:23.218Z,36.63
2023-04-12T05:15:24.843Z,34.92
2023-04-12T05:16:26.256Z,37.65
2023-04-12T05:17:28.393Z,39.22
2023-04-12T05:19:31.379Z,38.22
2023-04-12T05:20:32.847Z,36.08
2023-04-12T05:21:34.391Z,44.47
2023-04-12T05:22:35.993Z,45.30
2023-04-12T05:23:42.669Z,47.28
2023-04-12T05:24:44.153Z,44.35
2023-04-12T05:25:48.025Z,53.80
2023-04-12T05:26:49.518Z,115.88
2023-04-12T05:27:52.209Z,60.97
2023-04-12T05:28:53.869Z,66.35
2023-04-12T05:29:57.262Z,53.15
2023-04-12T05:30:58.842Z,41.03
2023-04-12T05:32:00.397Z,32.38
2023-04-12T05:33:01.845Z,29.17
2023-04-12T05:34:03.414Z,31.05
2023-04-12T05:35:05.432Z,28.33
2023-04-12T05:36:07.296Z,18.73
2023-04-12T05:37:08.808Z,21.02
2023-04-12T05:38:10.412Z,18.08
2023-04-12T05:39:11.857Z,12.23
2023-04-12T05:40:13.462Z,12.50
2023-04-12T05:41:14.875Z,10.27
2023-04-12T05:42:16.528Z,11.07
2023-04-12T05:43:18.184Z,10.60
2023-04-12T05:44:19.779Z,12.18
2023-04-12T05:45:21.332Z,12.32
2023-04-12T05:46:22.938Z,14.45
2023-04-12T05:47:24.389Z,12.35
2023-04-12T05:48:25.807Z,10.82
2023-04-12T05:49:33.717Z,11.45
2023-04-12T05:50:35.347Z,16.08
2023-04-12T05:51:41.221Z,11.52
2023-04-12T05:52:43.197Z,13.52
2023-04-12T05:53:44.583Z,10.10
2023-04-12T05:54:46.042Z,13.52
2023-04-12T05:55:47.522Z,13.55
2023-04-12T05:56:48.987Z,13.27
2023-04-12T05:57:51.453Z,11.00
2023-04-12T05:58:52.969Z,13.73
2023-04-12T05:59:54.817Z,13.02
2023-04-12T06:00:56.363Z,13.48
2023-04-12T06:01:57.850Z,12.52
2023-04-12T06:02:59.561Z,9.70
2023-04-12T06:04:06.130Z,9.02
2023-04-12T06:05:08.560Z,9.75
2023-04-12T06:06:10.194Z,8.60
2023-04-12T06:07:11.769Z,11.00
2023-04-12T06:08:14.762Z,12.65
2023-04-12T06:09:16.306Z,11.95
2023-04-12T06:10:18.257Z,11.32
2023-04-12T06:11:19.717Z,9.30
2023-04-12T06:12:21.950Z,7.85
2023-04-12T06:13:23.399Z,12.85
2023-04-12T06:14:24.780Z,8.27
2023-04-12T06:15:26.474Z,9.20
2023-04-12T06:16:28.287Z,10.07
2023-04-12T06:17:29.805Z,9.95
2023-04-12T06:18:31.355Z,11.57
2023-04-12T06:19:32.779Z,9.73
2023-04-12T06:20:34.240Z,10.98
2023-04-12T06:21:35.688Z,9.35
2023-04-12T06:22:37.503Z,9.75
2023-04-12T06:23:38.941Z,9.32
2023-04-12T06:24:40.406Z,9.10
2023-04-12T06:25:41.822Z,12.00
2023-04-12T06:26:46.758Z,9.25
2023-04-12T06:27:48.267Z,10.38
2023-04-12T06:28:50.038Z,9.32
2023-04-12T06:29:52.004Z,9.50
2023-04-12T06:31:55.666Z,9.45
2023-04-12T06:32:57.204Z,10.18
2023-04-12T06:33:58.694Z,9.45
2023-04-12T06:35:00.154Z,9.60
2023-04-12T06:36:01.719Z,7.53
2023-04-12T06:37:03.176Z,8.05
2023-04-12T06:38:04.626Z,9.05
2023-04-12T06:39:06.689Z,9.63
2023-04-12T06:41:09.969Z,8.68
2023-04-12T06:42:14.029Z,10.95
2023-04-12T06:43:20.212Z,8.73
2023-04-12T06:44:21.623Z,9.40
2023-04-12T06:45:23.083Z,8.45
2023-04-12T06:46:28.217Z,8.15
2023-04-12T06:47:30.682Z,10.00
2023-04-12T06:48:32.142Z,7.13
2023-04-12T06:49:33.745Z,8.15
2023-04-12T06:50:35.602Z,8.10
2023-04-12T06:51:37.068Z,9.02
2023-04-12T06:52:38.585Z,9.40
2023-04-12T06:53:40.230Z,7.18
2023-04-12T06:54:42.332Z,14.65
2023-04-12T06:55:43.734Z,8.65
2023-04-12T06:56:45.325Z,9.93
2023-04-12T06:57:46.794Z,7.93
2023-04-12T06:58:48.252Z,9.77
2023-04-12T06:59:49.792Z,14.10
2023-04-12T07:00:51.276Z,9.60
2023-04-12T07:01:52.876Z,9.82
2023-04-12T07:02:54.457Z,8.00
2023-04-12T07:03:56.353Z,9.20
2023-04-12T07:04:57.872Z,7.10
2023-04-12T07:06:07.760Z,9.52
2023-04-12T07:07:12.198Z,7.38
2023-04-12T07:08:13.644Z,7.93
2023-04-12T07:09:15.688Z,8.45
2023-04-12T07:11:21.766Z,8.00
2023-04-12T07:12:23.606Z,10.23
2023-04-12T07:13:25.151Z,7.32
2023-04-12T07:14:27.100Z,7.07
2023-04-12T07:16:31.571Z,7.38
2023-04-12T07:17:33.118Z,9.32
2023-04-12T07:18:34.702Z,10.90
2023-04-12T07:19:36.935Z,8.18
2023-04-12T07:20:38.381Z,6.95
2023-04-12T07:21:39.828Z,7.45
2023-04-12T07:22:41.260Z,7.82
2023-04-12T07:23:42.842Z,9.43
2023-04-12T07:24:44.493Z,5.97
2023-04-12T07:25:46.306Z,7.63
2023-04-12T07:26:47.774Z,5.53
2023-04-12T07:27:51.580Z,6.32
2023-04-12T07:28:53.264Z,7.65
2023-04-12T07:29:54.653Z,6.53
2023-04-12T07:30:56.208Z,9.80
2023-04-12T07:31:59.768Z,7.43
2023-04-12T07:33:18.510Z,6.63
2023-04-12T07:35:23.068Z,7.88
2023-04-12T07:36:24.562Z,5.78
2023-04-12T07:37:26.031Z,7.88
2023-04-12T07:38:27.569Z,8.05
2023-04-12T07:39:31.861Z,8.30
2023-04-12T07:40:33.473Z,9.05
2023-04-12T07:41:34.864Z,7.35
2023-04-12T07:42:36.280Z,6.35
2023-04-12T07:43:37.700Z,5.05
2023-04-12T07:44:39.246Z,6.60
2023-04-12T07:45:40.665Z,5.53
2023-04-12T07:46:42.127Z,8.52
2023-04-12T07:47:43.599Z,7.68
2023-04-12T07:48:45.067Z,6.70
2023-04-12T07:49:46.478Z,5.20
2023-04-12T07:50:47.930Z,8.43
2023-04-12T07:51:49.394Z,6.35
2023-04-12T07:52:51.025Z,6.18
2023-04-12T07:53:52.503Z,7.30
2023-04-12T07:54:55.027Z,4.30
2023-04-12T07:55:56.589Z,5.00
2023-04-12T07:57:04.896Z,5.43
2023-04-12T07:58:06.326Z,5.90
2023-04-12T07:59:07.844Z,6.00
2023-04-12T08:00:09.764Z,9.25
2023-04-12T08:01:13.198Z,7.10
2023-04-12T08:02:14.696Z,7.13
2023-04-12T08:03:17.244Z,10.15
2023-04-12T08:04:18.837Z,6.97
2023-04-12T08:05:20.572Z,7.72
2023-04-12T08:06:22.094Z,6.45
2023-04-12T08:07:23.930Z,5.10
2023-04-12T08:08:25.806Z,5.43
2023-04-12T08:09:27.482Z,5.90
2023-04-12T08:10:29.524Z,3.95
2023-04-12T08:12:32.349Z,5.78
2023-04-12T08:13:34.367Z,6.13
2023-04-12T08:15:37.574Z,7.78
2023-04-12T08:16:39.144Z,5.40
2023-04-12T08:17:43.687Z,4.28
2023-04-12T08:18:45.376Z,5.22
2023-04-12T08:19:47.332Z,6.63
2023-04-12T08:21:50.804Z,6.88
2023-04-12T08:22:52.693Z,6.28
2023-04-12T08:23:54.216Z,5.40
2023-04-12T08:24:55.734Z,5.05
2023-04-12T08:26:03.169Z,8.50
2023-04-12T08:27:04.736Z,7.15
2023-04-12T08:28:09.154Z,5.82
2023-04-12T08:29:10.691Z,7.65
2023-04-12T08:30:13.141Z,6.38
2023-04-12T08:31:15.533Z,4.88
2023-04-12T08:32:17.228Z,4.55
2023-04-12T08:33:18.682Z,7.47
2023-04-12T08:34:22.278Z,6.22
2023-04-12T08:35:23.984Z,4.43
2023-04-12T08:36:27.240Z,4.35
2023-04-12T08:37:28.679Z,6.63
2023-04-12T08:38:44.244Z,7.18
2023-04-12T08:39:47.319Z,6.22
2023-04-12T08:40:49.765Z,8.40
2023-04-12T08:41:51.899Z,4.90
2023-04-12T08:42:53.975Z,7.05
2023-04-12T08:43:56.105Z,8.02
2023-04-12T08:44:58.316Z,5.13
2023-04-12T08:47:07.021Z,4.68
2023-04-12T08:48:09.053Z,4.28
2023-04-12T08:49:11.381Z,9.00
2023-04-12T08:50:14.105Z,4.85
2023-04-12T08:51:19.247Z,5.65
2023-04-12T08:52:20.682Z,8.15
2023-04-12T08:53:22.373Z,4.97
2023-04-12T08:54:24.976Z,5.03
2023-04-12T08:55:26.467Z,9.18
2023-04-12T08:56:29.783Z,5.22
2023-04-12T08:57:32.661Z,9.15
2023-04-12T08:58:34.170Z,6.68
2023-04-12T08:59:42.252Z,5.85
2023-04-12T09:00:46.172Z,7.10
2023-04-12T09:01:48.273Z,5.53
2023-04-12T09:02:50.427Z,6.00
2023-04-12T09:03:52.197Z,5.75
2023-04-12T09:04:54.158Z,7.07
2023-04-12T09:05:56.116Z,6.65
2023-04-12T09:06:57.634Z,5.68
2023-04-12T09:07:59.593Z,4.97
2023-04-12T09:10:04.623Z,7.30
2023-04-12T09:11:22.646Z,5.38
2023-04-12T09:12:24.386Z,3.92
2023-04-12T09:13:34.517Z,5.88
2023-04-12T09:14:36.132Z,8.18
2023-04-12T09:15:51.200Z,5.43
2023-04-12T09:16:52.724Z,7.97
2023-04-12T09:18:08.647Z,6.15
2023-04-12T09:19:10.227Z,8.32
2023-04-12T09:20:17.806Z,3.78
2023-04-12T09:21:19.379Z,3.88
2023-04-12T09:22:36.170Z,5.45
2023-04-12T09:23:37.710Z,4.95
2023-04-12T09:24:47.445Z,6.45
2023-04-12T09:25:51.646Z,5.53
2023-04-12T09:27:06.474Z,7.18
2023-04-12T09:28:25.977Z,7.07
2023-04-12T09:29:27.582Z,5.93
2023-04-12T09:30:29.119Z,6.80
2023-04-12T09:31:31.367Z,8.75
2023-04-12T09:32:32.972Z,5.35
2023-04-12T09:33:36.610Z,5.90
2023-04-12T09:34:38.838Z,5.88
2023-04-12T09:35:40.850Z,3.95
2023-04-12T09:36:42.780Z,5.32
2023-04-12T09:37:44.214Z,6.07
2023-04-12T09:39:00.874Z,10.02
2023-04-12T09:40:05.916Z,4.28
2023-04-12T09:41:27.209Z,7.53
2023-04-12T09:42:33.991Z,5.93
2023-04-12T09:43:37.482Z,7.80
2023-04-12T09:44:39.829Z,5.88
2023-04-12T09:45:41.300Z,6.35
2023-04-12T09:46:54.786Z,6.55
2023-04-12T09:47:56.730Z,4.68
2023-04-12T09:48:59.550Z,5.38
2023-04-12T09:50:01.210Z,5.13
2023-04-12T09:51:02.898Z,6.20
2023-04-12T09:52:05.579Z,9.23
2023-04-12T09:53:18.785Z,6.30
2023-04-12T09:54:20.886Z,7.15
2023-04-12T09:55:24.071Z,7.50
2023-04-12T09:56:29.633Z,3.83
2023-04-12T09:57:31.317Z,7.85
2023-04-12T09:58:36.248Z,3.78
2023-04-12T09:59:41.914Z,5.63
2023-04-12T10:00:44.458Z,6.50
2023-04-12T10:01:47.009Z,5.00
2023-04-12T10:02:53.216Z,5.40
2023-04-12T10:03:55.641Z,4.38
2023-04-12T10:04:58.095Z,7.88
2023-04-12T10:06:00.030Z,5.90
2023-04-12T10:08:05.598Z,5.93
2023-04-12T10:09:08.591Z,6.18
2023-04-12T10:10:12.609Z,6.00
2023-04-12T10:11:14.506Z,4.60
2023-04-12T10:13:18.375Z,8.35
2023-04-12T10:14:22.124Z,5.75
2023-04-12T10:15:25.438Z,5.55
2023-04-12T10:16:27.570Z,6.50
2023-04-12T10:17:29.229Z,4.80
2023-04-12T10:18:31.476Z,7.53
2023-04-12T10:19:35.687Z,6.18
2023-04-12T10:20:40.630Z,6.65
2023-04-12T10:21:42.577Z,6.88
2023-04-12T10:23:52.849Z,5.78
2023-04-12T10:24:54.886Z,6.95
2023-04-12T10:25:57.100Z,6.28
2023-04-12T10:27:03.032Z,6.50
2023-04-12T10:28:15.801Z,7.13
2023-04-12T10:29:30.486Z,5.93
2023-04-12T10:30:32.206Z,6.53
2023-04-12T10:31:34.105Z,10.90
2023-04-12T10:32:36.349Z,6.22
2023-04-12T10:33:38.234Z,4.55
2023-04-12T10:34:42.385Z,5.60
2023-04-12T10:35:51.645Z,7.43
2023-04-12T10:36:54.004Z,4.53
2023-04-12T10:38:04.228Z,4.35
2023-04-12T10:39:10.978Z,5.13
2023-04-12T10:40:19.358Z,6.70
2023-04-12T10:41:21.684Z,8.05
2023-04-12T10:42:31.215Z,5.40
2023-04-12T10:43:32.816Z,6.15
2023-04-12T10:44:34.322Z,6.22
2023-04-12T10:45:36.683Z,4.93
2023-04-12T10:46:38.240Z,8.90
2023-04-12T10:47:58.344Z,7.95
2023-04-12T10:49:09.488Z,8.90
2023-04-12T10:50:25.007Z,7.07
2023-04-12T10:51:29.101Z,6.22
2023-04-12T10:52:30.743Z,6.15
2023-04-12T10:53:32.183Z,4.13
2023-04-12T10:54:35.578Z,6.53
2023-04-12T10:55:38.320Z,7.47
2023-04-12T10:56:47.162Z,6.25
2023-04-12T10:57:49.534Z,5.43
2023-04-12T10:58:51.108Z,6.05
2023-04-12T10:59:57.295Z,5.28
2023-04-12T11:00:58.969Z,8.40
2023-04-12T11:02:11.879Z,4.80
2023-04-12T11:03:14.126Z,4.10
2023-04-12T11:04:20.973Z,5.70
2023-04-12T11:05:22.846Z,5.68
2023-04-12T11:06:50.369Z,6.82
2023-04-12T11:07:53.665Z,6.82
2023-04-12T11:08:56.376Z,7.32
2023-04-12T11:09:58.105Z,6.57
2023-04-12T11:11:02.234Z,5.60
2023-04-12T11:12:03.594Z,6.10
2023-04-12T11:13:09.259Z,4.72
2023-04-12T11:14:11.228Z,4.60
2023-04-12T11:15:13.772Z,4.28
2023-04-12T11:16:15.317Z,6.80
2023-04-12T11:17:16.939Z,5.95
2023-04-12T11:18:18.674Z,7.68
2023-04-12T11:19:20.403Z,6.03
2023-04-12T11:20:21.865Z,6.32
2023-04-12T11:21:24.468Z,6.32
2023-04-12T11:22:31.886Z,4.03
2023-04-12T11:23:33.378Z,4.75
2023-04-12T11:24:39.342Z,4.55
2023-04-12T11:25:40.932Z,3.67
2023-04-12T11:26:42.866Z,5.30
2023-04-12T11:27:54.681Z,5.30
2023-04-12T11:28:56.554Z,5.57
2023-04-12T11:29:59.885Z,4.05
2023-04-12T11:31:01.373Z,6.32
2023-04-12T11:32:03.708Z,4.68
2023-04-12T11:33:05.278Z,4.63
2023-04-12T11:34:06.776Z,5.68
2023-04-12T11:35:08.739Z,5.85
2023-04-12T11:36:14.537Z,6.32
2023-04-12T11:37:19.030Z,4.45
2023-04-12T11:38:21.186Z,6.88
2023-04-12T11:39:22.754Z,5.57
2023-04-12T11:40:24.298Z,6.28
2023-04-12T11:41:25.870Z,5.15
2023-04-12T11:42:29.186Z,6.45
2023-04-12T11:43:30.910Z,5.93
2023-04-12T11:44:44.189Z,5.50
2023-04-12T11:45:59.110Z,4.03
2023-04-12T11:47:01.344Z,5.63
2023-04-12T11:48:02.898Z,6.03
2023-04-12T11:49:04.444Z,4.43
2023-04-12T11:50:06.600Z,4.68
2023-04-12T11:51:21.623Z,5.57
2023-04-12T11:52:31.923Z,4.47
2023-04-12T11:53:33.518Z,7.95
2023-04-12T11:54:35.164Z,7.32
2023-04-12T11:55:36.648Z,4.25
2023-04-12T11:56:38.659Z,10.20
2023-04-12T11:57:40.191Z,7.70
2023-04-12T11:58:41.626Z,5.53
2023-04-12T11:59:45.673Z,3.70
2023-04-12T12:00:47.172Z,7.50
2023-04-12T12:01:51.907Z,5.15
2023-04-12T12:03:06.727Z,4.97
2023-04-12T12:04:09.649Z,4.18
2023-04-12T12:05:11.717Z,4.00
2023-04-12T12:06:14.706Z,4.30
2023-04-12T12:07:17.930Z,6.18
2023-04-12T12:08:19.914Z,7.82
2023-04-12T12:10:36.575Z,4.00
2023-04-12T12:11:39.626Z,6.20
2023-04-12T12:12:44.832Z,7.82
2023-04-12T12:13:48.406Z,6.45
2023-04-12T12:14:49.921Z,4.68
2023-04-12T12:15:54.496Z,6.13
2023-04-12T12:16:57.946Z,6.05
2023-04-12T12:18:01.961Z,4.70
2023-04-12T12:19:04.966Z,4.88
2023-04-12T12:20:06.888Z,8.80
2023-04-12T12:21:09.976Z,4.82
2023-04-12T12:22:19.459Z,5.25
2023-04-12T12:23:31.524Z,6.38
2023-04-12T12:24:33.406Z,5.35
2023-04-12T12:25:35.920Z,7.28
2023-04-12T12:26:37.372Z,5.72
2023-04-12T12:27:40.786Z,4.72
2023-04-12T12:28:42.246Z,6.40
2023-04-12T12:29:44.204Z,6.13
2023-04-12T12:30:45.656Z,7.57
2023-04-12T12:31:50.409Z,4.45
2023-04-12T12:32:54.766Z,5.32
2023-04-12T12:33:59.092Z,4.13
2023-04-12T12:35:00.586Z,4.82
2023-04-12T12:36:02.146Z,6.43
2023-04-12T12:37:07.867Z,6.13
2023-04-12T12:38:10.198Z,7.60
2023-04-12T12:39:12.767Z,5.93
2023-04-12T12:40:14.508Z,5.30
2023-04-12T12:41:21.899Z,4.90
2023-04-12T12:42:23.396Z,2.70
2023-04-12T12:43:25.638Z,4.38
2023-04-12T12:44:27.047Z,4.72
2023-04-12T12:45:31.239Z,6.88
2023-04-12T12:46:50.991Z,4.50
2023-04-12T12:48:04.710Z,4.28
2023-04-12T12:49:06.344Z,6.47
2023-04-12T12:50:08.126Z,11.38
2023-04-12T12:51:10.458Z,5.85
2023-04-12T12:52:11.863Z,4.60
2023-04-12T12:53:13.423Z,4.10
2023-04-12T12:54:25.117Z,5.22
2023-04-12T12:55:37.959Z,7.75
2023-04-12T12:56:39.412Z,7.22
2023-04-12T12:57:43.058Z,4.85
2023-04-12T12:58:44.586Z,5.80
2023-04-12T12:59:46.000Z,6.68
2023-04-12T13:00:47.394Z,5.90
2023-04-12T13:01:48.904Z,4.45
2023-04-12T13:02:51.985Z,13.98
2023-04-12T13:03:54.031Z,8.63
2023-04-12T13:04:55.939Z,22.23
2023-04-12T13:06:58.879Z,7.45
2023-04-12T13:08:00.319Z,6.30
2023-04-12T13:09:01.942Z,5.68
2023-04-12T13:10:04.427Z,6.32
2023-04-12T13:11:06.303Z,7.15
2023-04-12T13:13:09.976Z,6.63
2023-04-12T13:14:11.578Z,6.72
2023-04-12T13:15:22.351Z,16.48
2023-04-12T13:16:26.927Z,17.02
2023-04-12T13:17:29.576Z,42.03
2023-04-12T13:18:31.143Z,26.52
2023-04-12T13:19:33.187Z,26.92
2023-04-12T13:20:34.644Z,54.35
2023-04-12T13:21:36.367Z,20.75
2023-04-12T13:22:37.916Z,70.50
2023-04-12T13:23:39.356Z,37.20
2023-04-12T13:24:40.832Z,36.55
2023-04-12T13:25:42.332Z,36.05
2023-04-12T13:26:43.733Z,24.13
2023-04-12T13:27:45.695Z,19.48
2023-04-12T13:28:47.092Z,24.13
2023-04-12T13:29:48.475Z,18.23
2023-04-12T13:30:50.063Z,13.65
2023-04-12T13:31:51.809Z,20.20
2023-04-12T13:32:54.146Z,26.52
2023-04-12T13:33:55.660Z,25.35
2023-04-12T13:34:57.166Z,51.85
2023-04-12T13:35:58.566Z,11.85
2023-04-12T13:37:01.100Z,11.50
2023-04-12T13:38:02.512Z,30.30
2023-04-12T13:39:03.993Z,32.88
2023-04-12T13:40:06.561Z,23.92
2023-04-12T13:41:08.069Z,45.85
2023-04-12T13:42:09.490Z,25.60
2023-04-12T13:43:11.074Z,24.10
2023-04-12T13:44:12.616Z,21.35
2023-04-12T13:45:14.079Z,7.40
2023-04-12T13:46:15.667Z,6.15
2023-04-12T13:47:20.233Z,10.77
2023-04-12T13:48:21.731Z,19.52
2023-04-12T13:49:23.154Z,11.27
2023-04-12T13:50:24.584Z,5.55
2023-04-12T13:51:26.662Z,13.65
2023-04-12T13:52:28.307Z,29.25
2023-04-12T13:53:31.004Z,10.75
2023-04-12T13:54:32.614Z,7.55
2023-04-12T13:55:34.045Z,8.25
2023-04-12T13:56:35.459Z,4.95
2023-04-12T13:57:37.202Z,7.50
2023-04-12T13:58:40.011Z,15.80
2023-04-12T13:59:41.490Z,12.65
2023-04-12T14:00:42.981Z,10.20
2023-04-12T14:01:44.671Z,8.98
2023-04-12T14:03:48.137Z,8.57
2023-04-12T14:04:52.563Z,18.00
2023-04-12T14:05:53.989Z,15.05
2023-04-12T14:06:56.806Z,20.63
2023-04-12T14:07:58.191Z,13.65
2023-04-12T14:08:59.937Z,7.30
2023-04-12T14:10:01.610Z,12.80
2023-04-12T14:11:03.454Z,16.95
2023-04-12T14:13:06.244Z,16.17
2023-04-12T14:14:07.646Z,15.77
2023-04-12T14:15:09.417Z,16.58
2023-04-12T14:16:11.895Z,7.72
2023-04-12T14:17:13.429Z,6.60
2023-04-12T14:18:15.658Z,7.25
2023-04-12T14:19:17.105Z,8.10
2023-04-12T14:20:19.670Z,5.72